createdAt,value
2019-04-26T00:00:19.631Z,1.2
2019-04-26T00:05:17.369Z,1.2
2019-04-26T00:10:16.908Z,0.3
2019-04-26T00:15:17.268Z,0.4
2019-04-26T00:20:19.107Z,1.2
2019-04-26T00:25:18.364Z,0.2
2019-04-26T00:30:17.567Z,1.1
2019-04-26T00:35:18.077Z,0.7
2019-04-26T00:40:18.226Z,1.1
2019-04-26T00:45:17.285Z,1.2
2019-04-26T00:50:17.423Z,1.3
2019-04-26T00:55:17.894Z,1.2
2019-04-26T01:00:19.607Z,0.6
2019-04-26T01:05:23.366Z,0.8
2019-04-26T01:10:18.003Z,1.2
2019-04-26T01:15:21.645Z,0.4
2019-04-26T01:20:28.108Z,1.3
2019-04-26T01:25:18.840Z,0.5
2019-04-26T01:30:23.809Z,1.1
2019-04-26T01:35:19.293Z,0.3
2019-04-26T01:40:17.344Z,1.1
2019-04-26T01:45:17.270Z,0.1
2019-04-26T01:50:17.391Z,1
2019-04-26T01:55:17.611Z,1
2019-04-26T02:00:24.172Z,0.4
2019-04-26T02:05:17.122Z,1
2019-04-26T02:10:17.212Z,0.6
2019-04-26T02:15:17.443Z,1.2
2019-04-26T02:20:17.883Z,0.5
2019-04-26T02:25:18.895Z,1.1
2019-04-26T02:30:16.962Z,0.5
2019-04-26T02:35:22.957Z,1.2
2019-04-26T02:40:22.422Z,0.7
2019-04-26T02:45:17.342Z,1.1
2019-04-26T02:50:17.292Z,0.3
2019-04-26T02:55:17.252Z,1.1
2019-04-26T03:00:17.212Z,0.6
2019-04-26T03:05:17.142Z,1.2
2019-04-26T03:10:17.241Z,1.1
2019-04-26T03:15:17.403Z,0.5
2019-04-26T03:20:17.768Z,1.4
2019-04-26T03:25:18.274Z,0.4
2019-04-26T03:30:23.351Z,1.4
2019-04-26T03:35:22.216Z,1.2
2019-04-26T03:40:17.292Z,0.1
2019-04-26T03:45:28.314Z,1.2
2019-04-26T03:50:17.402Z,0.3
2019-04-26T03:55:17.817Z,1.2
2019-04-26T04:00:18.116Z,0.8
2019-04-26T04:05:17.167Z,1.1
2019-04-26T04:10:17.303Z,1.3
2019-04-26T04:15:17.794Z,0.6
2019-04-26T04:20:27.521Z,1.4
2019-04-26T04:25:22.490Z,0.8
2019-04-26T04:30:22.981Z,1.4
2019-04-26T04:35:17.275Z,0.3
2019-04-26T04:40:17.371Z,1.6
2019-04-26T04:45:17.409Z,0.1
2019-04-26T04:50:22.573Z,1.9
2019-04-26T04:55:17.682Z,0.4
2019-04-26T05:00:22.624Z,2.2
2019-04-26T05:05:17.751Z,1.5
2019-04-26T05:10:19.102Z,2.1
2019-04-26T05:15:22.226Z,2
2019-04-26T05:20:17.324Z,0.5
2019-04-26T05:25:17.655Z,2.1
2019-04-26T05:30:17.593Z,1.9
2019-04-26T05:35:17.938Z,2.2
2019-04-26T05:40:16.959Z,0.5
2019-04-26T05:45:16.880Z,2.4
2019-04-26T05:50:17.839Z,2.3
2019-04-26T05:55:17.780Z,0.2
2019-04-26T06:00:17.732Z,1.8
2019-04-26T06:05:22.732Z,0.9
2019-04-26T06:10:19.015Z,1.9
2019-04-26T06:15:16.990Z,2.2
2019-04-26T06:20:23.710Z,0.5
2019-04-26T06:25:28.311Z,1.7
2019-04-26T06:30:17.551Z,0.3
2019-04-26T06:35:22.523Z,2.4
2019-04-26T06:40:17.591Z,0.4
2019-04-26T06:45:17.569Z,2.5
2019-04-26T06:50:17.552Z,1
2019-04-26T06:55:18.549Z,2.6
2019-04-26T07:00:17.483Z,0.4
2019-04-26T07:05:17.480Z,2.6
2019-04-26T07:10:22.587Z,3
2019-04-26T07:15:28.993Z,0.6
2019-04-26T07:20:18.289Z,2.5
2019-04-26T07:25:18.150Z,0.2
2019-04-26T07:30:28.271Z,2.3
2019-04-26T07:35:22.322Z,0.4
2019-04-26T07:40:17.552Z,1.8
2019-04-26T07:45:17.305Z,1.7
2019-04-26T07:50:22.817Z,0.7
2019-04-26T07:55:18.947Z,1.6
2019-04-26T08:00:21.887Z,0.3
2019-04-26T08:05:16.986Z,1.6
2019-04-26T08:10:17.031Z,0
2019-04-26T08:15:17.037Z,1.7
2019-04-26T08:20:17.205Z,1.5
2019-04-26T08:25:17.958Z,0.1
2019-04-26T08:30:29.458Z,2.4
2019-04-26T08:35:22.001Z,2.6
2019-04-26T08:40:30.878Z,0.3
2019-04-26T08:45:17.436Z,2.1
2019-04-26T08:50:19.329Z,0
2019-04-26T08:55:18.266Z,2.3
2019-04-26T09:00:18.214Z,0.1
2019-04-26T09:05:17.825Z,3.1
2019-04-26T09:10:25.006Z,0.4
2019-04-26T09:15:17.417Z,3.1
2019-04-26T09:20:29.921Z,2.9
2019-04-26T09:25:16.959Z,2.5
2019-04-26T09:30:17.012Z,2.2
2019-04-26T09:35:23.064Z,0.6
2019-04-26T09:40:23.150Z,0.3
2019-04-26T09:45:17.046Z,2.5
2019-04-26T09:50:27.458Z,0.5
2019-04-26T09:55:17.545Z,0.2
2019-04-26T10:00:22.926Z,0
2019-04-26T10:05:23.814Z,0.2
2019-04-26T10:10:30.877Z,0.2
2019-04-26T10:15:17.265Z,0.2
2019-04-26T10:20:17.546Z,0
2019-04-26T10:25:17.985Z,0.4
2019-04-26T10:30:17.498Z,0.7
2019-04-26T10:35:21.593Z,0.8
2019-04-26T10:40:17.054Z,0.6
2019-04-26T10:45:27.149Z,0.4
2019-04-26T10:50:17.479Z,0.2
2019-04-26T10:55:17.813Z,0.5
2019-04-26T11:00:19.244Z,0.3
2019-04-26T11:05:19.634Z,0.4
2019-04-26T11:10:18.826Z,0.8
2019-04-26T11:15:18.005Z,0.2
2019-04-26T11:20:18.143Z,0.3
2019-04-26T11:25:17.328Z,0
2019-04-26T11:30:21.507Z,0.5
2019-04-26T11:35:18.546Z,0.6
2019-04-26T11:40:22.723Z,0.5
2019-04-26T11:45:18.122Z,0.4
2019-04-26T11:50:18.195Z,0.4
2019-04-26T11:55:17.339Z,0.8
2019-04-26T12:00:22.599Z,0.9
2019-04-26T12:05:17.932Z,0.5
2019-04-26T12:10:17.307Z,0.1
2019-04-26T12:15:30.650Z,0.5
2019-04-26T12:20:16.916Z,0.2
2019-04-26T12:25:21.856Z,0.3
2019-04-26T12:30:17.847Z,0.5
2019-04-26T12:35:17.845Z,1.2
2019-04-26T12:40:21.946Z,1
2019-04-26T12:45:21.385Z,0.6
2019-04-26T12:50:17.638Z,0.3
2019-04-26T12:55:20.161Z,1.3
2019-04-26T13:00:17.495Z,0.9
2019-04-26T13:05:20.575Z,0
2019-04-26T13:10:17.998Z,0.2
2019-04-26T13:15:18.225Z,0.8
2019-04-26T13:20:28.596Z,0.8
2019-04-26T13:25:39.763Z,0.8
2019-04-26T13:30:43.717Z,5
2019-04-26T13:35:23.242Z,1.1
2019-04-26T13:40:25.620Z,0.6
2019-04-26T13:45:18.763Z,1
2019-04-26T13:50:17.756Z,0.8
2019-04-26T13:55:17.703Z,0.9
2019-04-26T14:00:17.732Z,0.3
2019-04-26T14:05:17.756Z,0.5
2019-04-26T14:10:17.886Z,0.2
2019-04-26T14:15:23.079Z,0.5
2019-04-26T14:20:23.242Z,0.7
2019-04-26T14:25:17.330Z,0.7
2019-04-26T14:30:17.383Z,0.9
2019-04-26T14:35:27.941Z,0.3
2019-04-26T14:40:18.252Z,0.6
2019-04-26T14:45:24.343Z,1.1
2019-04-26T14:50:31.915Z,0.2
2019-04-26T14:55:22.845Z,0.9
2019-04-26T15:00:22.307Z,0.8
2019-04-26T15:05:17.477Z,0.5
2019-04-26T15:10:17.924Z,0.2
2019-04-26T15:15:19.022Z,0.4
2019-04-26T15:20:23.977Z,1.4
2019-04-26T15:25:17.522Z,0.5
2019-04-26T15:30:17.523Z,0.6
2019-04-26T15:35:23.347Z,0.4
2019-04-26T15:40:17.524Z,0.8
2019-04-26T15:45:17.653Z,1.1
2019-04-26T15:50:17.692Z,0.5
2019-04-26T15:55:17.683Z,0.2
2019-04-26T16:00:17.743Z,0.6
2019-04-26T16:05:17.697Z,0.2
2019-04-26T16:10:17.882Z,0.4
2019-04-26T16:15:18.098Z,1.2
2019-04-26T16:20:18.452Z,0.6
2019-04-26T16:25:23.315Z,1.3
2019-04-26T16:30:17.631Z,0.5
2019-04-26T16:35:22.359Z,1.3
2019-04-26T16:40:26.272Z,1.4
2019-04-26T16:45:17.303Z,0.3
2019-04-26T16:50:31.325Z,1.4
2019-04-26T16:55:25.370Z,0.5
2019-04-26T17:00:17.812Z,1.2
2019-04-26T17:10:24.544Z,1.7
2019-04-26T17:15:22.111Z,0.2
2019-04-26T17:20:16.921Z,1.6
2019-04-26T17:25:26.810Z,0.2
2019-04-26T17:30:17.252Z,1.9
2019-04-26T17:35:22.311Z,0.8
2019-04-26T17:40:17.876Z,2.3
2019-04-26T17:45:17.850Z,0.4
2019-04-26T17:50:20.525Z,2.2
2019-04-26T17:55:18.229Z,0.8
2019-04-26T18:00:26.865Z,2.4
2019-04-26T18:05:49.954Z,0.2
2019-04-26T18:10:17.503Z,2.6
2019-04-26T18:15:19.941Z,3.3
2019-04-26T18:20:17.370Z,4.3
2019-04-26T18:25:17.399Z,5.2
2019-04-26T18:30:18.288Z,5
2019-04-26T18:35:23.404Z,7.5
2019-04-26T18:40:23.008Z,2.8
2019-04-26T18:45:29.637Z,10.4
2019-04-26T18:50:32.697Z,9.6
2019-04-26T18:55:17.061Z,9.7
2019-04-26T19:00:34.579Z,8.9
2019-04-26T19:05:27.109Z,9.4
2019-04-26T19:10:37.997Z,2.6
2019-04-26T19:15:16.965Z,9.8
2019-04-26T19:20:17.717Z,3.1
2019-04-26T19:25:25.009Z,12.2
2019-04-26T19:30:32.620Z,12.8
2019-04-26T19:35:22.859Z,5
2019-04-26T19:40:17.950Z,12.8
2019-04-26T19:45:21.939Z,14.4
2019-04-26T19:50:40.442Z,14.7
2019-04-26T19:55:24.259Z,3.9
2019-04-26T20:00:17.337Z,15.4
2019-04-26T20:05:17.818Z,4.6
2019-04-26T20:10:17.427Z,17.9
2019-04-26T20:15:28.795Z,17
2019-04-26T20:20:23.585Z,17.6
2019-04-26T20:25:18.248Z,6
2019-04-26T20:30:22.666Z,17.7
2019-04-26T20:35:28.610Z,16.9
2019-04-26T20:40:25.849Z,15.9
2019-04-26T20:45:22.899Z,16.8
2019-04-26T20:50:16.886Z,17.2
2019-04-26T20:55:17.879Z,16.2
2019-04-26T21:00:17.868Z,4.2
2019-04-26T21:05:18.655Z,15.1
2019-04-26T21:10:25.607Z,2.9
2019-04-26T21:15:25.538Z,12.9
2019-04-26T21:20:19.000Z,13.4
2019-04-26T21:25:16.956Z,3.5
2019-04-26T21:30:16.968Z,12.5
2019-04-26T21:35:24.917Z,13.3
2019-04-26T21:40:26.105Z,11.6
2019-04-26T21:45:21.519Z,11.8
2019-04-26T21:50:16.916Z,4.1
2019-04-26T21:55:38.632Z,11.2
2019-04-26T22:00:17.137Z,10.6
2019-04-26T22:05:17.545Z,9.8
2019-04-26T22:10:17.859Z,9.8
2019-04-26T22:15:23.498Z,9.9
2019-04-26T22:20:23.415Z,9.6
2019-04-26T22:25:20.515Z,10.8
2019-04-26T22:30:17.674Z,10.3
2019-04-26T22:35:22.105Z,11.1
2019-04-26T22:40:20.086Z,11.3
2019-04-26T22:45:17.130Z,11
2019-04-26T22:50:22.251Z,11
2019-04-26T22:55:27.462Z,11.3
2019-04-26T23:00:25.451Z,11
2019-04-26T23:05:17.605Z,12.4
2019-04-26T23:10:24.312Z,13.1
2019-04-26T23:15:18.724Z,12.9
2019-04-26T23:20:17.993Z,14.1
2019-04-26T23:25:30.971Z,13.9
2019-04-26T23:30:23.415Z,5.5
2019-04-26T23:35:22.904Z,13.6
2019-04-26T23:40:25.547Z,4.7
2019-04-26T23:45:27.606Z,14.9
2019-04-26T23:50:17.633Z,14.9
2019-04-26T23:55:17.678Z,3.3
